<?xml version="1.0" encoding="UTF-8" standalone="no" ?>
<gpx xmlns="http://www.topografix.com/GPX/1/1" xmlns:xsi="http://www.w3.org/2001/XMLSchema-instance" xsi:schemaLocation="http://www.topografix.com/GPX/1/1 http://www.topografix.com/GPX/1/1/gpx.xsd" version="1.1" creator="VisuGPX - https://www.visugpx.com">
  <metadata>
    <name>VacancesDricouZoe</name>
  </metadata>
  <trk>
    <name><![CDATA[Journal actif: 2021-07-05 11:09]]></name>
    <trkseg>
      <trkpt lat="43.38449" lon="-1.66503">
        <ele>2.54</ele>
        <time>2021-07-05T13:09:20Z</time>
      </trkpt>
      <trkpt lat="43.38374" lon="-1.66622">
        <ele>4.46</ele>
        <time>2021-07-05T13:09:31Z</time>
      </trkpt>
      <trkpt lat="43.38247" lon="-1.66722">
        <ele>3.98</ele>
        <time>2021-07-05T13:09:43Z</time>
      </trkpt>
      <trkpt lat="43.38186" lon="-1.66756">
        <ele>3.98</ele>
        <time>2021-07-05T13:09:51Z</time>
      </trkpt>
      <trkpt lat="43.38081" lon="-1.66834">
        <ele>-0.34</ele>
        <time>2021-07-05T13:10:04Z</time>
      </trkpt>
      <trkpt lat="43.38001" lon="-1.66903">
        <ele>0.14</ele>
        <time>2021-07-05T13:10:15Z</time>
      </trkpt>
      <trkpt lat="43.37927" lon="-1.66981">
        <ele>-0.34</ele>
        <time>2021-07-05T13:10:25Z</time>
      </trkpt>
      <trkpt lat="43.3786" lon="-1.67062">
        <ele>0.14</ele>
        <time>2021-07-05T13:10:36Z</time>
      </trkpt>
      <trkpt lat="43.37836" lon="-1.67104">
        <ele>1.1</ele>
        <time>2021-07-05T13:10:44Z</time>
      </trkpt>
      <trkpt lat="43.37802" lon="-1.67203">
        <ele>3.5</ele>
        <time>2021-07-05T13:10:54Z</time>
      </trkpt>
      <trkpt lat="43.37795" lon="-1.67227">
        <ele>4.46</ele>
        <time>2021-07-05T13:10:56Z</time>
      </trkpt>
      <trkpt lat="43.37795" lon="-1.67227">
        <ele>4.46</ele>
        <time>2021-07-05T13:10:57Z</time>
      </trkpt>
      <trkpt lat="43.37794" lon="-1.67233">
        <ele>3.02</ele>
        <time>2021-07-05T13:10:58Z</time>
      </trkpt>
      <trkpt lat="43.37797" lon="-1.67247">
        <ele>3.02</ele>
        <time>2021-07-05T13:10:59Z</time>
      </trkpt>
      <trkpt lat="43.37801" lon="-1.67249">
        <ele>3.02</ele>
        <time>2021-07-05T13:11:00Z</time>
      </trkpt>
      <trkpt lat="43.37805" lon="-1.67252">
        <ele>3.02</ele>
        <time>2021-07-05T13:11:01Z</time>
      </trkpt>
      <trkpt lat="43.3781" lon="-1.67255">
        <ele>3.02</ele>
        <time>2021-07-05T13:11:02Z</time>
      </trkpt>
      <trkpt lat="43.37848" lon="-1.67275">
        <ele>7.83</ele>
        <time>2021-07-05T13:11:08Z</time>
      </trkpt>
      <trkpt lat="43.37854" lon="-1.67277">
        <ele>8.31</ele>
        <time>2021-07-05T13:11:09Z</time>
      </trkpt>
      <trkpt lat="43.37864" lon="-1.67279">
        <ele>9.27</ele>
        <time>2021-07-05T13:11:10Z</time>
      </trkpt>
      <trkpt lat="43.37867" lon="-1.67274">
        <ele>10.23</ele>
        <time>2021-07-05T13:11:11Z</time>
      </trkpt>
      <trkpt lat="43.37867" lon="-1.67274">
        <ele>10.71</ele>
        <time>2021-07-05T13:11:12Z</time>
      </trkpt>
      <trkpt lat="43.37871" lon="-1.67268">
        <ele>11.19</ele>
        <time>2021-07-05T13:11:13Z</time>
      </trkpt>
      <trkpt lat="43.37875" lon="-1.67265">
        <ele>10.71</ele>
        <time>2021-07-05T13:11:14Z</time>
      </trkpt>
      <trkpt lat="43.37878" lon="-1.67269">
        <ele>10.23</ele>
        <time>2021-07-05T13:11:15Z</time>
      </trkpt>
      <trkpt lat="43.37881" lon="-1.67273">
        <ele>9.75</ele>
        <time>2021-07-05T13:11:16Z</time>
      </trkpt>
      <trkpt lat="43.37883" lon="-1.67277">
        <ele>8.79</ele>
        <time>2021-07-05T13:11:17Z</time>
      </trkpt>
      <trkpt lat="43.37882" lon="-1.67283">
        <ele>8.79</ele>
        <time>2021-07-05T13:11:18Z</time>
      </trkpt>
      <trkpt lat="43.37879" lon="-1.67286">
        <ele>8.31</ele>
        <time>2021-07-05T13:11:19Z</time>
      </trkpt>
      <trkpt lat="43.37871" lon="-1.67284">
        <ele>7.83</ele>
        <time>2021-07-05T13:11:20Z</time>
      </trkpt>
      <trkpt lat="43.37867" lon="-1.67281">
        <ele>6.87</ele>
        <time>2021-07-05T13:11:21Z</time>
      </trkpt>
      <trkpt lat="43.37863" lon="-1.67279">
        <ele>6.39</ele>
        <time>2021-07-05T13:11:22Z</time>
      </trkpt>
      <trkpt lat="43.37857" lon="-1.67278">
        <ele>5.91</ele>
        <time>2021-07-05T13:11:23Z</time>
      </trkpt>
      <trkpt lat="43.37852" lon="-1.67276">
        <ele>5.91</ele>
        <time>2021-07-05T13:11:24Z</time>
      </trkpt>
      <trkpt lat="43.37801" lon="-1.67249">
        <ele>2.54</ele>
        <time>2021-07-05T13:11:36Z</time>
      </trkpt>
      <trkpt lat="43.37794" lon="-1.67245">
        <ele>3.02</ele>
        <time>2021-07-05T13:11:48Z</time>
      </trkpt>
      <trkpt lat="43.37793" lon="-1.67244">
        <ele>3.02</ele>
        <time>2021-07-05T13:11:49Z</time>
      </trkpt>
      <trkpt lat="43.37792" lon="-1.6724">
        <ele>3.02</ele>
        <time>2021-07-05T13:11:50Z</time>
      </trkpt>
      <trkpt lat="43.37793" lon="-1.67235">
        <ele>3.02</ele>
        <time>2021-07-05T13:11:51Z</time>
      </trkpt>
      <trkpt lat="43.37795" lon="-1.67228">
        <ele>3.02</ele>
        <time>2021-07-05T13:11:52Z</time>
      </trkpt>
      <trkpt lat="43.37822" lon="-1.67139">
        <ele>3.98</ele>
        <time>2021-07-05T13:12:03Z</time>
      </trkpt>
      <trkpt lat="43.37831" lon="-1.67115">
        <ele>4.46</ele>
        <time>2021-07-05T13:12:08Z</time>
      </trkpt>
      <trkpt lat="43.37883" lon="-1.67035">
        <ele>4.46</ele>
        <time>2021-07-05T13:12:19Z</time>
      </trkpt>
      <trkpt lat="43.37976" lon="-1.66926">
        <ele>4.94</ele>
        <time>2021-07-05T13:12:31Z</time>
      </trkpt>
      <trkpt lat="43.3805" lon="-1.66861">
        <ele>2.54</ele>
        <time>2021-07-05T13:12:41Z</time>
      </trkpt>
      <trkpt lat="43.38152" lon="-1.66779">
        <ele>3.02</ele>
        <time>2021-07-05T13:12:53Z</time>
      </trkpt>
      <trkpt lat="43.3821" lon="-1.66744">
        <ele>4.46</ele>
        <time>2021-07-05T13:13:01Z</time>
      </trkpt>
      <trkpt lat="43.38306" lon="-1.6668">
        <ele>5.91</ele>
        <time>2021-07-05T13:13:12Z</time>
      </trkpt>
      <trkpt lat="43.3843" lon="-1.66544">
        <ele>7.35</ele>
        <time>2021-07-05T13:13:25Z</time>
      </trkpt>
      <trkpt lat="43.38513" lon="-1.66357">
        <ele>5.91</ele>
        <time>2021-07-05T13:13:41Z</time>
      </trkpt>
      <trkpt lat="43.38543" lon="-1.66292">
        <ele>4.94</ele>
        <time>2021-07-05T13:13:49Z</time>
      </trkpt>
      <trkpt lat="43.38544" lon="-1.66288">
        <ele>4.94</ele>
        <time>2021-07-05T13:13:50Z</time>
      </trkpt>
      <trkpt lat="43.38545" lon="-1.66285">
        <ele>4.94</ele>
        <time>2021-07-05T13:13:51Z</time>
      </trkpt>
      <trkpt lat="43.38546" lon="-1.66283">
        <ele>4.94</ele>
        <time>2021-07-05T13:13:52Z</time>
      </trkpt>
    </trkseg>
  </trk>
</gpx>